Rockville, Rhode Island
Current Conditions -  °F | °C
As of 1:53 AM on Friday 28 Nov 2014 (Local Time) from KWST Reporting Station
Overcast Overcast  
Wind Chill: 27°   Ceiling: 6000
Heat Index: 32°   Visibility: 10mi
Dew Point: 28°   Wind: 5mph
Humidity: 85%   Direction: 320°NW
Pressure: 30"   Gusts: NA
Location:  41.52°N, 71.76°W
Report Text: KWST 280653Z AUTO 32004KT 10SM FEW044 OVC060 00/M02 A3000 RMK AO2 SLP159 T00001022
Loading
Personal Weather Stations






























Interactive Weather Map New forecast layout! Learn more

10-Day Weather Forecast

Advertisements
Track Severe Weather on mobile